Terminal Aerodrome Forecast
Issued by NWS Shreveport, LA

Home | Current Version | Previous Version | Text Only | Print | Product List | Glossary On
Versions: 1 2 3 4 5 6 7 8 9 10 11 12 13 14 15 16 17 18 19
000
FTUS44 KSHV 281129
TAFTXK
TAF
KTXK 281129Z 2812/2912 05012G20KT P6SM SCT040 OVC090
     FM281800 01010KT P6SM VCSH OVC040
     FM290300 VRB04KT P6SM SCT050
      TEMPO 2903/2907 OVC030=

USA.gov is the U.S. government's official web portal to all federal, state and local government web resources and services.